Time;durP1;ratioP1;P1;durP2;ratioP2;P2;SDS_P1;SDS_P2;PMS_P1;PMS_P2;Temp;Humidity;BMP_temperature;BMP_pressure;BME280_temperature;BME280_humidity;BME280_pressure;Samples;Min_cycle;Max_cycle;Signal;HPM_P1;HPM_P2
2022/09/05 00:02:31;;;;;;;4.50;3.28;;;;;;;18.94;62.57;101361.69;5034864;28;20048;-77
2022/09/05 00:05:11;;;;;;;11.35;3.60;;;;;;;18.99;62.41;101362.06;5034373;28;20074;-77
2022/09/05 00:08:11;;;;;;;10.48;3.55;;;;;;;19.01;62.44;101367.38;5034239;28;20038;-77
2022/09/05 00:10:48;;;;;;;8.38;3.95;;;;;;;18.91;62.61;101366.63;5034485;28;20042;-77
2022/09/05 00:13:22;;;;;;;11.88;3.67;;;;;;;18.93;62.68;101361.84;5034230;28;20036;-76
2022/09/05 00:16:26;;;;;;;4.88;3.53;;;;;;;18.85;62.78;101350.91;5034132;28;20061;-78
2022/09/05 00:19:00;;;;;;;8.43;3.97;;;;;;;18.80;63.02;101350.53;5000467;28;20037;-76
2022/09/05 00:21:28;;;;;;;8.00;3.25;;;;;;;18.80;63.06;101359.59;5012634;28;20037;-76
2022/09/05 00:24:13;;;;;;;6.50;3.88;;;;;;;18.78;62.98;101352.56;5013987;28;20057;-76
2022/09/05 00:26:54;;;;;;;5.35;3.50;;;;;;;18.74;63.03;101353.91;5013787;28;20476;-76
2022/09/05 00:29:42;;;;;;;5.47;3.72;;;;;;;18.70;63.10;101344.34;5014114;28;20076;-78
2022/09/05 00:32:21;;;;;;;6.45;3.47;;;;;;;18.70;63.09;101355.22;5014209;28;20030;-77
2022/09/05 00:35:12;;;;;;;5.47;3.53;;;;;;;18.70;63.26;101352.50;5014629;28;20041;-77
2022/09/05 00:37:44;;;;;;;7.13;3.22;;;;;;;18.73;63.15;101352.19;5005325;28;20048;-76
2022/09/05 00:40:34;;;;;;;10.67;3.43;;;;;;;18.75;63.14;101352.88;5014452;28;20046;-78
2022/09/05 00:43:10;;;;;;;6.18;3.58;;;;;;;18.79;63.07;101354.28;5013671;28;20121;-76
2022/09/05 00:45:42;;;;;;;4.18;2.92;;;;;;;18.79;62.94;101354.28;5013303;28;20030;-77
2022/09/05 00:48:08;;;;;;;7.93;3.95;;;;;;;18.81;62.96;101352.22;5014031;28;20144;-76
2022/09/05 00:51:11;;;;;;;5.78;3.22;;;;;;;18.85;62.61;101354.50;5013829;28;20459;-76
2022/09/05 00:53:55;;;;;;;6.43;3.72;;;;;;;18.86;62.45;101353.50;5013782;28;20481;-77
2022/09/05 00:56:44;;;;;;;11.45;3.08;;;;;;;18.72;63.05;101347.75;5013763;28;20072;-76
2022/09/05 00:59:46;;;;;;;4.40;2.80;;;;;;;18.82;62.71;101346.63;5013726;28;20069;-77
2022/09/05 01:02:21;;;;;;;9.65;4.07;;;;;;;18.79;62.79;101351.56;5013648;28;20029;-77
2022/09/05 01:04:56;;;;;;;9.15;4.22;;;;;;;18.85;62.43;101351.75;4995893;28;20376;-76
2022/09/05 01:07:43;;;;;;;12.10;4.00;;;;;;;18.82;62.36;101345.78;5013281;28;20038;-76
2022/09/05 01:10:26;;;;;;;18.10;4.35;;;;;;;18.96;61.83;101348.75;5013415;28;20042;-76
2022/09/05 01:13:29;;;;;;;6.68;3.25;;;;;;;18.96;61.80;101356.06;5013573;28;20034;-76
2022/09/05 01:16:32;;;;;;;5.95;3.45;;;;;;;18.94;61.56;101355.38;5013407;28;20034;-76
2022/09/05 01:19:11;;;;;;;4.93;2.78;;;;;;;18.91;61.78;101353.00;5013373;28;20131;-77
2022/09/05 01:22:06;;;;;;;10.77;3.78;;;;;;;18.79;62.01;101338.78;5022224;28;20033;-76
2022/09/05 01:24:32;;;;;;;8.32;3.50;;;;;;;18.85;61.71;101348.19;5033091;28;20036;-78
2022/09/05 01:27:37;;;;;;;8.60;3.70;;;;;;;18.75;62.04;101347.41;5032925;28;20033;-78
2022/09/05 01:30:06;;;;;;;7.03;2.70;;;;;;;18.72;62.10;101345.00;5033085;28;20025;-76
2022/09/05 01:32:49;;;;;;;11.98;3.63;;;;;;;18.58;62.57;101341.03;5032903;28;20033;-76
2022/09/05 01:35:27;;;;;;;4.93;3.40;;;;;;;18.57;62.68;101347.47;5032932;28;20041;-76
2022/09/05 01:37:55;;;;;;;7.38;3.65;;;;;;;18.45;63.16;101355.00;5032804;28;20091;-76
2022/09/05 01:41:04;;;;;;;10.73;3.78;;;;;;;18.46;63.05;101334.09;5032856;28;20041;-76
2022/09/05 01:43:39;;;;;;;15.73;4.47;;;;;;;18.43;63.12;101340.72;4979224;28;20506;-76
2022/09/05 01:46:41;;;;;;;15.18;4.07;;;;;;;18.50;62.73;101348.28;5032783;28;20061;-78
2022/09/05 01:49:23;;;;;;;9.30;3.17;;;;;;;18.34;63.46;101343.53;5032701;28;20069;-77
2022/09/05 01:52:14;;;;;;;5.53;3.88;;;;;;;18.39;63.11;101333.84;5032579;28;20045;-76
2022/09/05 01:55:17;;;;;;;8.88;4.10;;;;;;;18.41;63.10;101336.41;4996773;28;20531;-77
2022/09/05 01:57:51;;;;;;;9.57;3.95;;;;;;;18.31;63.41;101339.25;5032283;28;20026;-77
2022/09/05 02:00:36;;;;;;;7.30;3.75;;;;;;;18.20;63.71;101323.13;5032507;28;20041;-77
2022/09/05 02:03:04;;;;;;;9.57;3.63;;;;;;;18.28;63.73;101331.41;5011255;28;20100;-77
2022/09/05 02:05:36;;;;;;;12.40;3.70;;;;;;;18.26;63.78;101330.69;5012818;28;20108;-77
2022/09/05 02:08:37;;;;;;;6.20;3.17;;;;;;;18.29;63.77;101327.63;5011236;28;20034;-76
2022/09/05 02:11:08;;;;;;;6.82;3.72;;;;;;;18.30;63.71;101329.34;5012837;28;20038;-77
2022/09/05 02:13:34;;;;;;;5.45;3.17;;;;;;;18.25;63.89;101334.44;5012950;28;20065;-77
2022/09/05 02:16:14;;;;;;;9.93;3.53;;;;;;;18.24;64.00;101330.00;5012498;28;20159;-76
2022/09/05 02:18:51;;;;;;;5.93;3.33;;;;;;;18.27;63.99;101323.38;5012322;28;20492;-76
2022/09/05 02:21:27;;;;;;;8.48;3.30;;;;;;;18.26;64.09;101325.22;5005739;28;20029;-76
2022/09/05 02:24:21;;;;;;;5.10;3.47;;;;;;;18.25;64.02;101326.25;5012139;28;20026;-76
2022/09/05 02:27:18;;;;;;;8.18;3.85;;;;;;;18.32;63.89;101331.91;5012028;28;20045;-77
2022/09/05 02:30:00;;;;;;;5.40;3.65;;;;;;;18.37;63.50;101322.28;5012175;28;20046;-77
2022/09/05 02:32:34;;;;;;;7.65;3.58;;;;;;;18.37;63.42;101330.44;5012257;28;20036;-77
2022/09/05 02:35:14;;;;;;;13.98;4.03;;;;;;;18.43;63.31;101332.53;5011943;28;20052;-77
2022/09/05 02:38:20;;;;;;;12.43;4.38;;;;;;;18.44;63.28;101336.09;5012188;28;20025;-76
2022/09/05 02:40:58;;;;;;;5.80;3.42;;;;;;;18.39;62.92;101317.50;5012006;28;20037;-79
2022/09/05 02:43:59;;;;;;;7.15;3.58;;;;;;;18.48;62.95;101332.91;5011688;28;20040;-76
2022/09/05 02:46:45;;;;;;;12.73;3.92;;;;;;;18.56;62.67;101336.75;4970265;28;20037;-76
2022/09/05 02:49:33;;;;;;;4.88;3.20;;;;;;;18.53;62.61;101334.34;5011958;28;20072;-76
2022/09/05 02:52:08;;;;;;;9.07;3.85;;;;;;;18.34;62.79;101311.69;5011996;28;20030;-78
2022/09/05 02:54:41;;;;;;;6.38;3.65;;;;;;;18.52;62.81;101332.63;5011809;28;20033;-76
2022/09/05 02:57:44;;;;;;;8.32;3.85;;;;;;;18.45;62.89;101327.78;5011837;28;20060;-76
2022/09/05 03:00:16;;;;;;;8.82;3.15;;;;;;;18.39;63.04;101322.97;5011735;28;20127;-77
2022/09/05 03:02:56;;;;;;;6.57;3.50;;;;;;;18.48;62.89;101326.59;5015043;28;20095;-77
2022/09/05 03:05:33;;;;;;;6.75;3.60;;;;;;;18.46;62.77;101326.78;5031308;28;20038;-77
2022/09/05 03:08:33;;;;;;;5.68;4.40;;;;;;;18.45;62.89;101327.78;5033633;28;20025;-77
2022/09/05 03:11:19;;;;;;;11.88;3.50;;;;;;;18.35;62.96;101316.09;5035502;28;20045;-77
2022/09/05 03:14:18;;;;;;;8.18;3.55;;;;;;;18.33;62.87;101317.28;5035201;28;20095;-77
2022/09/05 03:17:08;;;;;;;9.20;3.55;;;;;;;18.31;62.98;101316.59;5035217;28;20029;-78
2022/09/05 03:20:01;;;;;;;16.20;4.40;;;;;;;18.33;62.71;101311.84;5035324;28;20148;-77
2022/09/05 03:22:46;;;;;;;12.52;3.70;;;;;;;18.30;62.77;101323.91;5028292;28;20072;-77
2022/09/05 03:25:21;;;;;;;9.93;4.30;;;;;;;18.20;62.78;101330.44;5035070;28;20033;-76
2022/09/05 03:27:49;;;;;;;11.52;4.20;;;;;;;18.23;62.73;101331.00;5034986;28;20072;-78
2022/09/05 03:30:19;;;;;;;15.98;7.55;;;;;;;18.28;62.54;101336.84;5035010;28;20479;-77
2022/09/05 03:33:29;;;;;;;11.55;4.65;;;;;;;18.32;62.40;101338.22;5034978;28;20504;-76
2022/09/05 03:36:15;;;;;;;9.13;5.30;;;;;;;18.27;62.46;101340.56;4954775;29;20449;-76
2022/09/05 03:39:25;;;;;;;10.30;4.10;;;;;;;18.29;62.40;101343.97;5029715;28;20042;-76
2022/09/05 03:42:09;;;;;;;8.00;4.55;;;;;;;18.33;62.25;101356.28;5035241;28;20112;-76
2022/09/05 03:45:00;;;;;;;8.00;3.78;;;;;;;18.32;62.20;101360.00;5035293;28;20041;-76
2022/09/05 03:47:31;;;;;;;9.75;3.85;;;;;;;18.33;62.02;101359.00;5034641;28;20033;-76
2022/09/05 03:50:00;;;;;;;13.30;4.90;;;;;;;18.35;62.13;101359.69;5034048;28;20039;-77
2022/09/05 03:52:37;;;;;;;8.98;4.90;;;;;;;18.37;62.18;101362.28;5016714;28;20033;-77
2022/09/05 03:55:27;;;;;;;5.90;3.70;;;;;;;18.39;62.00;101366.53;5034680;28;20029;-77
2022/09/05 03:58:33;;;;;;;19.52;4.78;;;;;;;18.35;62.16;101358.81;5034533;28;20025;-77
2022/09/05 04:01:23;;;;;;;12.02;4.18;;;;;;;18.34;62.23;101360.72;5034277;28;20045;-79
2022/09/05 04:04:19;;;;;;;12.30;4.45;;;;;;;18.17;62.38;101338.94;5034238;28;20053;-80
2022/09/05 04:07:18;;;;;;;9.98;3.72;;;;;;;18.34;62.04;101374.34;5034176;28;20439;-79
2022/09/05 04:09:57;;;;;;;12.82;4.53;;;;;;;18.29;62.09;101379.38;5034036;28;20457;-79
2022/09/05 04:12:46;;;;;;;10.32;4.75;;;;;;;18.24;61.93;101375.41;5034164;28;20030;-78
2022/09/05 04:15:34;;;;;;;7.22;4.28;;;;;;;18.19;61.81;101365.00;5034122;28;20037;-77
2022/09/05 04:18:09;;;;;;;172.10;113.07;;;;;;;18.30;61.10;101367.47;5033694;28;20402;-78
2022/09/05 04:20:42;;;;;;;9.38;5.88;;;;;;;18.41;60.72;101388.16;5034146;28;20464;-79
2022/09/05 04:23:27;;;;;;;9.02;3.90;;;;;;;18.46;60.11;101366.78;5027439;28;20041;-78
2022/09/05 04:26:43;;;;;;;5.13;3.05;;;;;;;18.60;59.76;101379.00;5034117;28;20034;-77
2022/09/05 04:29:18;;;;;;;29.98;4.10;;;;;;;18.64;59.37;101373.09;4990277;28;20038;-77
2022/09/05 04:32:05;;;;;;;15.88;3.67;;;;;;;18.63;59.13;101379.53;5034352;28;20037;-82
2022/09/05 04:34:54;;;;;;;17.02;5.20;;;;;;;18.50;59.33;101357.28;5016479;28;20037;-84
2022/09/05 04:37:37;;;;;;;6.57;3.25;;;;;;;18.71;59.38;101373.31;5011923;28;20073;-82
2022/09/05 04:40:44;;;;;;;13.40;4.22;;;;;;;18.78;59.33;101377.94;5014142;28;20041;-78
2022/09/05 04:43:18;;;;;;;7.60;3.17;;;;;;;18.76;59.38;101377.25;4934441;29;20054;-81
2022/09/05 04:45:50;;;;;;;8.50;3.85;;;;;;;18.79;59.54;101384.25;4934394;29;20130;-81
2022/09/05 04:48:22;;;;;;;16.45;3.60;;;;;;;18.86;59.19;101378.03;4981044;28;20117;-81
2022/09/05 04:51:04;;;;;;;17.13;3.75;;;;;;;18.81;58.94;101372.16;5014205;28;20543;-79
2022/09/05 04:53:43;;;;;;;9.18;3.50;;;;;;;18.93;58.83;101379.06;5013027;28;20042;-81
2022/09/05 04:56:19;;;;;;;15.18;3.67;;;;;;;19.05;58.29;101385.09;5013772;28;20034;-77
2022/09/05 04:58:59;;;;;;;7.82;2.97;;;;;;;18.97;58.33;101383.19;5013646;28;20120;-79
2022/09/05 05:02:21;;;;;;;11.50;3.65;;;;;;;19.05;57.81;101396.00;5016781;28;20038;-83
2022/09/05 05:04:48;;;;;;;12.73;2.67;;;;;;;18.98;57.48;101373.16;4934212;29;20055;-81
2022/09/05 05:07:27;;;;;;;9.45;3.47;;;;;;;19.13;57.16;101390.63;4934037;29;20046;-81
2022/09/05 05:10:00;;;;;;;19.15;3.92;;;;;;;19.06;57.38;101396.88;4989049;28;20516;-81
2022/09/05 05:12:38;;;;;;;12.65;4.10;;;;;;;19.18;57.41;101399.16;4996471;28;20041;-81
2022/09/05 05:15:11;;;;;;;8.00;2.70;;;;;;;19.19;57.08;101397.28;5014428;28;20081;-81
2022/09/05 05:17:50;;;;;;;22.13;4.78;;;;;;;19.34;56.79;101402.00;5015023;28;20061;-80
2022/09/05 05:20:35;;;;;;;13.85;4.30;;;;;;;19.40;56.18;101393.19;5014372;28;20061;-82
2022/09/05 05:23:08;;;;;;;17.25;3.30;;;;;;;19.35;55.74;101387.34;5027107;28;20037;-78
2022/09/05 05:25:56;;;;;;;22.02;4.68;;;;;;;19.47;56.00;101396.97;5032224;28;20051;-79
2022/09/05 05:29:06;;;;;;;13.23;3.88;;;;;;;19.47;56.26;101391.53;5034171;28;20048;-80
2022/09/05 05:31:35;;;;;;;7.43;3.33;;;;;;;19.49;55.72;101394.94;5002650;28;20061;-79
2022/09/05 05:34:03;;;;;;;7.68;3.08;;;;;;;19.49;55.44;101383.16;5032853;28;20041;-80
2022/09/05 05:36:33;;;;;;;8.02;3.35;;;;;;;19.55;55.30;101394.28;5032664;28;20099;-77
2022/09/05 05:39:05;;;;;;;5.22;2.80;;;;;;;19.68;54.62;101393.81;5032657;28;20158;-79
2022/09/05 05:41:51;;;;;;;4.70;2.72;;;;;;;19.70;53.91;101391.75;5032333;28;20548;-81
2022/09/05 05:44:25;;;;;;;18.35;3.22;;;;;;;19.74;53.84;101374.06;5033053;28;20034;-78
2022/09/05 05:47:01;;;;;;;23.08;3.78;;;;;;;19.95;53.40;101390.81;5032198;28;20034;-77
2022/09/05 05:49:41;;;;;;;5.65;2.38;;;;;;;20.05;53.18;101391.53;5014892;28;20064;-78
2022/09/05 05:52:41;;;;;;;11.57;3.42;;;;;;;20.15;53.00;101396.81;5032770;28;20108;-79
2022/09/05 05:55:32;;;;;;;19.90;3.45;;;;;;;20.25;51.94;101408.47;4964819;28;20086;-78
2022/09/05 05:58:31;;;;;;;4.75;2.13;;;;;;;20.36;51.24;101408.19;5032150;28;20033;-79
2022/09/05 06:01:24;;;;;;;21.83;3.58;;;;;;;20.43;51.38;101408.34;5032296;28;20083;-78
2022/09/05 06:04:15;;;;;;;30.05;4.13;;;;;;;20.44;50.97;101400.00;5032104;28;20068;-77
2022/09/05 06:06:44;;;;;;;20.77;4.70;;;;;;;20.70;50.28;101409.91;4996444;28;20502;-78
2022/09/05 06:09:27;;;;;;;10.60;3.20;;;;;;;20.81;49.96;101406.81;5032510;28;20543;-79
2022/09/05 06:12:16;;;;;;;17.85;3.28;;;;;;;20.85;49.69;101400.84;5032020;28;20061;-77
2022/09/05 06:15:24;;;;;;;15.40;3.75;;;;;;;20.98;49.20;101428.50;5032042;28;20030;-77
2022/09/05 06:18:10;;;;;;;29.75;8.25;;;;;;;21.10;48.69;101427.16;5031804;28;20037;-79
2022/09/05 06:21:13;;;;;;;6.07;2.92;;;;;;;21.18;48.00;101420.81;5033574;28;20033;-87
2022/09/05 06:23:58;;;;;;;;;;;;;;;21.37;47.57;101425.91;4996746;28;20026;-85
2022/09/05 06:26:48;;;;;;;21.15;3.58;;;;;;;21.56;47.44;101436.44;5013441;28;19951;-79
2022/09/05 06:29:39;;;;;;;20.20;3.42;;;;;;;21.71;47.55;101431.09;5012081;28;20073;-78
2022/09/05 06:32:23;;;;;;;14.10;3.25;;;;;;;21.82;47.40;101424.34;5011678;28;20041;-78
2022/09/05 06:35:09;;;;;;;11.75;3.00;;;;;;;21.87;47.65;101428.25;5012193;28;20104;-79
2022/09/05 06:37:58;;;;;;;7.75;2.70;;;;;;;22.00;47.95;101435.94;5011809;28;20030;-78
2022/09/05 06:40:31;;;;;;;8.45;3.17;;;;;;;22.19;47.78;101435.50;5012007;28;20120;-80
2022/09/05 06:43:12;;;;;;;12.75;3.85;;;;;;;22.31;47.44;101445.00;4994173;28;20091;-78
2022/09/05 06:45:59;;;;;;;11.35;2.60;;;;;;;22.35;47.00;101449.09;5012105;28;20515;-77
2022/09/05 06:48:36;;;;;;;8.80;3.17;;;;;;;22.38;47.11;101439.66;5011991;28;20042;-80
2022/09/05 06:51:23;;;;;;;6.72;2.70;;;;;;;22.44;47.17;101447.16;5011703;28;20492;-77
2022/09/05 06:54:04;;;;;;;15.32;3.90;;;;;;;22.48;46.70;101452.06;5011823;28;20041;-78
2022/09/05 06:56:58;;;;;;;14.25;3.10;;;;;;;22.60;46.66;101455.25;5011591;28;20045;-77
2022/09/05 06:59:42;;;;;;;10.63;2.75;;;;;;;22.64;46.67;101465.69;4974944;28;20042;-77
2022/09/05 07:02:33;;;;;;;21.25;4.43;;;;;;;22.77;46.77;101474.19;5011670;28;20038;-77
2022/09/05 07:05:17;;;;;;;12.15;2.63;;;;;;;22.88;46.37;101475.63;5010977;28;20046;-77
2022/09/05 07:07:49;;;;;;;17.45;2.40;;;;;;;22.93;46.23;101486.06;5011467;28;20064;-78
2022/09/05 07:10:20;;;;;;;2.85;1.95;;;;;;;22.98;46.27;101492.69;5011136;28;20134;-78
2022/09/05 07:12:52;;;;;;;14.00;2.70;;;;;;;23.11;46.42;101497.56;5010324;28;20464;-76
2022/09/05 07:15:27;;;;;;;9.65;3.45;;;;;;;23.16;45.97;101489.63;5010021;28;20037;-77
2022/09/05 07:18:25;;;;;;;23.92;4.95;;;;;;;23.17;46.08;101496.81;5009924;28;20073;-76
2022/09/05 07:21:00;;;;;;;8.25;2.95;;;;;;;23.18;46.28;101488.38;5009319;28;20088;-77
2022/09/05 07:23:50;;;;;;;6.53;2.70;;;;;;;23.27;46.30;101491.94;4991897;28;20091;-77
2022/09/05 07:26:18;;;;;;;12.73;2.60;;;;;;;23.22;46.40;101483.38;5009894;28;20510;-76
2022/09/05 07:28:48;;;;;;;12.65;2.60;;;;;;;23.25;46.27;101477.53;5011088;28;20030;-77
2022/09/05 07:31:26;;;;;;;13.20;2.38;;;;;;;23.29;46.14;101487.97;5011740;28;20053;-78
2022/09/05 07:34:08;;;;;;;13.75;4.20;;;;;;;23.35;46.08;101499.22;5011553;28;20034;-78
2022/09/05 07:36:50;;;;;;;12.80;4.50;;;;;;;23.30;46.22;101488.81;5011761;28;20049;-77
2022/09/05 07:39:21;;;;;;;11.68;3.28;;;;;;;23.30;46.72;101491.56;5011551;28;20542;-77
2022/09/05 07:41:54;;;;;;;11.23;3.22;;;;;;;23.25;46.45;101489.38;5011664;28;20030;-77
2022/09/05 07:44:26;;;;;;;125.28;11.02;;;;;;;23.34;46.68;101484.63;5011627;28;20464;-77
2022/09/05 07:47:19;;;;;;;32.70;4.72;;;;;;;23.43;46.68;101474.44;5009637;28;20034;-77
2022/09/05 07:49:47;;;;;;;12.85;3.17;;;;;;;23.62;46.75;101488.50;4991276;28;20397;-77
2022/09/05 07:52:26;;;;;;;33.03;4.22;;;;;;;23.62;46.22;101480.25;4991524;28;20102;-77
2022/09/05 07:54:53;;;;;;;11.00;2.88;;;;;;;23.64;46.36;101488.28;4994655;28;20034;-77
2022/09/05 07:57:31;;;;;;;18.88;3.85;;;;;;;23.71;46.30;101494.75;4994505;28;20065;-78
2022/09/05 08:00:10;;;;;;;4.43;2.50;;;;;;;23.61;46.19;101483.16;4994996;28;20113;-83
2022/09/05 08:02:43;;;;;;;53.95;4.90;;;;;;;23.56;46.76;101478.25;4995023;28;20118;-83
2022/09/05 08:05:08;;;;;;;15.68;2.97;;;;;;;23.54;46.83;101480.34;4995079;28;20061;-80
2022/09/05 08:07:37;;;;;;;21.45;2.80;;;;;;;23.62;46.59;101480.25;4994705;28;20073;-78
2022/09/05 08:10:29;;;;;;;29.45;3.78;;;;;;;23.62;47.09;101468.41;4994751;28;20121;-77
2022/09/05 08:13:00;;;;;;;30.00;4.03;;;;;;;23.71;46.47;101481.88;4994425;28;20121;-79
2022/09/05 08:15:28;;;;;;;5.82;2.40;;;;;;;23.65;46.74;101457.03;4994631;28;20038;-79
2022/09/05 08:18:22;;;;;;;27.33;3.83;;;;;;;23.89;46.66;101480.59;4993972;28;20038;-78
2022/09/05 08:20:54;;;;;;;23.70;2.90;;;;;;;23.91;47.49;101470.31;4994130;28;20065;-79
2022/09/05 08:23:54;;;;;;;17.97;4.40;;;;;;;23.84;46.55;101481.19;4993752;28;20038;-79
2022/09/05 08:26:48;;;;;;;7.07;2.33;;;;;;;23.80;46.74;101461.50;4993332;28;20114;-78
2022/09/05 08:29:37;;;;;;;14.95;2.85;;;;;;;23.85;45.85;101475.50;4993268;28;20038;-78
2022/09/05 08:32:20;;;;;;;12.13;2.58;;;;;;;24.01;45.39;101477.19;4993687;28;20045;-79
2022/09/05 08:34:53;;;;;;;12.13;2.58;;;;;;;24.17;45.82;101462.41;4994110;28;20045;-78
2022/09/05 08:37:21;;;;;;;5.95;3.13;;;;;;;24.35;45.81;101465.59;4994277;28;20038;-79
2022/09/05 08:39:53;;;;;;;7.32;3.08;;;;;;;24.41;46.00;101467.56;4994500;28;20121;-78
2022/09/05 08:42:25;;;;;;;22.30;4.35;;;;;;;24.31;45.87;101469.78;4994184;28;20109;-79
2022/09/05 08:45:03;;;;;;;7.15;3.22;;;;;;;24.12;46.33;101467.66;4994009;28;20049;-79
2022/09/05 08:47:40;;;;;;;11.73;2.90;;;;;;;24.10;46.85;101469.69;5010129;28;20037;-79
2022/09/05 08:50:29;;;;;;;19.63;4.55;;;;;;;24.19;46.67;101472.16;5033279;28;20041;-80
2022/09/05 08:53:12;;;;;;;13.70;3.33;;;;;;;24.27;46.26;101473.97;5033322;28;20044;-79
2022/09/05 08:55:43;;;;;;;32.13;4.05;;;;;;;;;;5033525;28;20048;-78
2022/09/05 08:58:17;;;;;;;3.25;2.15;;;;;;;24.36;46.00;101467.31;5033385;28;20068;-79
2022/09/05 09:00:51;;;;;;;9.27;2.38;;;;;;;24.33;45.50;101446.56;5033665;28;20068;-79
2022/09/05 09:03:38;;;;;;;7.50;2.47;;;;;;;24.53;45.05;101476.16;5033496;28;20049;-78
2022/09/05 09:06:47;;;;;;;6.57;2.28;;;;;;;24.65;44.43;101467.19;5032448;28;20029;-78
2022/09/05 09:09:19;;;;;;;14.02;2.38;;;;;;;24.81;44.93;101466.97;5033154;28;20037;-80
2022/09/05 09:11:57;;;;;;;22.92;5.90;;;;;;;24.99;44.60;101457.38;5025820;28;20147;-80
2022/09/05 09:14:25;;;;;;;4.72;2.53;;;;;;;25.18;44.15;101463.03;5032416;28;20056;-78
2022/09/05 09:17:06;;;;;;;25.55;4.03;;;;;;;25.27;43.83;101472.88;5032885;28;20048;-79
2022/09/05 09:19:49;;;;;;;8.45;2.53;;;;;;;25.28;43.37;101468.22;5033370;28;20103;-79
2022/09/05 09:22:26;;;;;;;4.35;2.30;;;;;;;25.20;43.20;101460.06;5033277;28;20494;-78
2022/09/05 09:25:00;;;;;;;13.25;6.22;;;;;;;25.20;43.29;101465.59;5032810;28;20392;-80
2022/09/05 09:28:01;;;;;;;5.93;2.70;;;;;;;25.24;43.29;101466.91;5032418;28;20037;-78
2022/09/05 09:30:30;;;;;;;10.10;2.95;;;;;;;25.27;43.16;101464.59;4988801;28;20067;-78
2022/09/05 09:33:02;;;;;;;16.42;1.92;;;;;;;25.18;43.63;101457.53;5032840;28;20033;-78
2022/09/05 09:35:45;;;;;;;34.30;5.22;;;;;;;24.99;43.49;101429.84;5032666;28;20116;-79
2022/09/05 09:38:19;;;;;;;;;;;;;;;24.92;43.65;101458.16;5032894;28;20101;-79
2022/09/05 09:41:02;;;;;;;15.27;2.83;;;;;;;24.97;43.65;101451.22;5032351;28;19967;-78
2022/09/05 09:44:00;;;;;;;8.23;2.50;;;;;;;24.92;43.74;101460.91;5032567;28;20037;-80
2022/09/05 09:46:43;;;;;;;8.75;2.17;;;;;;;24.88;43.66;101445.88;5031958;28;20037;-78
2022/09/05 09:49:41;;;;;;;14.13;3.88;;;;;;;24.88;43.82;101465.13;5032352;28;20047;-78
2022/09/05 09:52:12;;;;;;;8.85;3.03;;;;;;;24.81;43.71;101458.69;5031931;28;20392;-78
2022/09/05 09:54:47;;;;;;;7.93;2.30;;;;;;;24.83;43.67;101448.34;5032462;28;20033;-78
2022/09/05 09:57:28;;;;;;;13.45;2.75;;;;;;;24.98;43.28;101447.44;5014259;28;20362;-77
2022/09/05 10:00:10;;;;;;;11.48;2.53;;;;;;;24.97;43.94;101448.47;5032233;28;20065;-78
2022/09/05 10:02:54;;;;;;;5.22;2.35;;;;;;;24.98;44.78;101444.66;5032177;28;20041;-78
2022/09/05 10:05:39;;;;;;;8.65;2.75;;;;;;;25.00;45.46;101459.06;5032212;28;20063;-78
2022/09/05 10:08:23;;;;;;;9.68;2.65;;;;;;;24.82;45.90;101456.81;5031989;28;20034;-78
2022/09/05 10:11:11;;;;;;;15.57;2.30;;;;;;;24.63;47.26;101463.78;5031664;28;20045;-78
2022/09/05 10:14:01;;;;;;;10.00;2.00;;;;;;;24.54;49.54;101464.09;4990070;28;20402;-79
2022/09/05 10:17:37;;;;;;;13.55;2.28;;;;;;;24.36;50.37;101461.81;5031411;28;20083;-77
2022/09/05 10:20:20;;;;;;;25.13;2.83;;;;;;;24.39;51.23;101453.16;4987636;28;20042;-78
2022/09/05 10:23:43;;;;;;;15.48;2.67;;;;;;;24.58;51.01;101465.44;5009694;28;20041;-78
2022/09/05 10:26:27;;;;;;;6.82;1.75;;;;;;;24.77;50.32;101457.34;4937215;29;20113;-78
2022/09/05 10:29:01;;;;;;;5.03;2.17;;;;;;;24.74;50.29;101459.63;5025868;28;20109;-78
2022/09/05 10:31:50;;;;;;;8.68;2.25;;;;;;;24.63;50.21;101460.19;5014220;28;20037;-78
2022/09/05 10:34:22;;;;;;;5.15;1.60;;;;;;;24.42;50.40;101439.03;4993812;28;20052;-78
2022/09/05 10:36:58;;;;;;;11.18;2.22;;;;;;;24.46;50.74;101456.00;5031578;28;20112;-78
2022/09/05 10:39:30;;;;;;;14.20;2.75;;;;;;;24.44;50.50;101445.16;5031590;28;20056;-78
2022/09/05 10:42:15;;;;;;;6.47;1.63;;;;;;;24.33;50.44;101445.69;5031194;28;20025;-78
2022/09/05 10:44:52;;;;;;;4.85;2.00;;;;;;;24.15;50.99;101459.00;5030914;28;20092;-79
2022/09/05 10:47:37;;;;;;;18.20;2.30;;;;;;;24.06;51.29;101457.38;5030936;28;20033;-79
2022/09/05 10:50:29;;;;;;;4.15;2.45;;;;;;;24.06;50.97;101451.91;5030808;28;20117;-78
2022/09/05 10:53:34;;;;;;;14.93;2.25;;;;;;;24.06;51.22;101449.16;5030920;28;20044;-78
2022/09/05 10:56:03;;;;;;;12.52;2.70;;;;;;;24.22;51.19;101457.19;5031282;28;20103;-78
2022/09/05 10:58:31;;;;;;;11.77;2.53;;;;;;;24.29;50.65;101460.88;5031128;28;20030;-77
2022/09/05 11:01:00;;;;;;;5.03;1.45;;;;;;;24.26;50.24;101456.59;5030919;28;20037;-78
2022/09/05 11:03:51;;;;;;;7.57;2.40;;;;;;;24.24;49.78;101458.72;5031059;28;20057;-77
2022/09/05 11:06:23;;;;;;;7.75;1.65;;;;;;;24.12;49.58;101448.41;5027973;28;20072;-77
2022/09/05 11:09:08;;;;;;;;;;;;;;;24.04;49.99;101462.22;5031691;28;20460;-78
2022/09/05 11:12:05;;;;;;;13.27;2.47;;;;;;;23.81;50.38;101441.22;5031080;28;19948;-78
2022/09/05 11:14:54;;;;;;;11.13;2.20;;;;;;;23.83;50.58;101461.09;5028164;28;20453;-78
2022/09/05 11:17:38;;;;;;;6.82;1.90;;;;;;;23.66;50.91;101456.88;5031174;28;20108;-77
2022/09/05 11:20:22;;;;;;;19.63;3.17;;;;;;;23.64;51.63;101449.84;5030919;28;20148;-77
2022/09/05 11:22:51;;;;;;;14.43;2.88;;;;;;;23.68;51.55;101454.78;5032733;28;20038;-85
2022/09/05 11:25:23;;;;;;;40.45;15.10;;;;;;;23.76;51.86;101448.31;5015997;28;20356;-85
2022/09/05 11:27:53;;;;;;;12.48;2.35;;;;;;;23.77;51.30;101439.91;5016258;28;20480;-86
2022/09/05 11:30:26;;;;;;;4.93;1.90;;;;;;;23.92;51.32;101437.13;5035649;28;20112;-87
2022/09/05 11:32:55;;;;;;;9.38;2.47;;;;;;;24.12;50.52;101445.66;5017792;28;20418;-86
2022/09/05 11:35:28;;;;;;;8.85;1.77;;;;;;;24.20;50.63;101445.53;5035842;28;20033;-85
2022/09/05 11:38:09;;;;;;;27.40;2.80;;;;;;;24.29;50.36;101444.38;5017644;28;20030;-87
2022/09/05 11:40:41;;;;;;;12.02;3.47;;;;;;;24.47;49.82;101453.03;5035045;28;20045;-86
2022/09/05 11:43:34;;;;;;;10.55;2.63;;;;;;;24.46;49.02;101454.09;5017453;28;20419;-86
2022/09/05 11:46:09;;;;;;;113.10;11.90;;;;;;;24.34;48.81;101447.41;5035007;28;20044;-85
2022/09/05 11:48:49;;;;;;;4.28;2.40;;;;;;;24.24;48.81;101449.59;5035302;28;20044;-85
2022/09/05 11:51:36;;;;;;;6.32;1.77;;;;;;;24.07;49.14;101450.81;5035420;28;20491;-86
2022/09/05 11:54:20;;;;;;;3.95;1.77;;;;;;;23.94;49.44;101456.19;5034716;28;20033;-86
2022/09/05 11:57:07;;;;;;;19.20;8.25;;;;;;;23.88;49.75;101443.22;5035344;28;20037;-84
2022/09/05 11:59:55;;;;;;;24.20;2.20;;;;;;;23.65;50.14;101446.91;5035302;28;20120;-85
2022/09/05 12:02:37;;;;;;;17.48;3.00;;;;;;;23.57;50.58;101433.28;5035417;28;20495;-85
2022/09/05 12:05:21;;;;;;;4.27;1.73;;;;;;;23.45;50.71;101433.94;5018502;28;20495;-86
2022/09/05 12:08:16;;;;;;;8.85;2.75;;;;;;;23.25;51.15;101430.84;5035317;28;20335;-89
2022/09/05 12:11:00;;;;;;;5.90;1.85;;;;;;;23.36;51.10;101446.88;5017150;28;20426;-90
2022/09/05 12:13:36;;;;;;;9.20;2.50;;;;;;;23.30;51.21;101444.91;5002613;28;20045;-90
2022/09/05 12:16:43;;;;;;;8.95;2.67;;;;;;;23.20;50.94;101439.66;5016451;28;20045;-89
2022/09/05 12:19:35;;;;;;;13.32;2.78;;;;;;;23.26;51.43;101440.81;5004373;28;20042;-88
2022/09/05 12:22:23;;;;;;;10.70;2.00;;;;;;;23.14;51.11;101425.84;4988965;28;20038;-88
2022/09/05 12:25:17;;;;;;;6.43;2.17;;;;;;;23.27;51.05;101448.00;5014800;28;20115;-88
2022/09/05 12:27:47;;;;;;;9.15;2.25;;;;;;;23.14;51.49;101442.31;4997679;28;20053;-87
2022/09/05 12:30:22;;;;;;;11.05;2.10;;;;;;;23.13;51.19;101435.97;4996991;28;20041;-88
2022/09/05 12:33:02;;;;;;;5.63;2.13;;;;;;;23.03;51.18;101427.13;5014819;28;20579;-85
2022/09/05 12:36:10;;;;;;;6.15;2.40;;;;;;;23.02;51.35;101433.69;4996789;28;20034;-86